Dale, Texas
Current Conditions -  °F | °C
As of 4:48 PM on Tuesday 21 Oct 2014 (Local Time) from KHYI Reporting Station
Clear Clear  
Wind Chill: 82°   Ceiling: Unl
Heat Index: 82°   Visibility: 10mi
Dew Point: 43°   Wind: 13mph
Humidity: 25%   Direction: 100°E
Pressure: 29.99"   Gusts: NA
Location:  29.93°N, 97.57°W
Report Text: KHYI 212148Z 10011KT 10SM CLR 28/06 A2999
Loading
Personal Weather Stations






























Interactive Weather Map
Tropical Storm Tracking
New forecast layout! Learn more

10-Day Weather Forecast

Advertisements
Track Severe Weather on mobile